createdAt,value
2023-01-05T00:02:07.188Z,84.55
2023-01-05T00:04:34.146Z,77.72
2023-01-05T00:07:01.050Z,83.05
2023-01-05T00:09:27.879Z,82.90
2023-01-05T00:12:13.129Z,88.85
2023-01-05T00:14:58.539Z,79.32
2023-01-05T00:17:44.064Z,74.40
2023-01-05T00:20:40.821Z,79.97
2023-01-05T00:23:08.906Z,58.20
2023-01-05T00:25:40.638Z,73.70
2023-01-05T00:28:07.844Z,78.32
2023-01-05T00:30:39.753Z,82.90
2023-01-05T00:33:15.475Z,88.95
2023-01-05T00:35:43.131Z,92.43
2023-01-05T00:38:10.261Z,93.32
2023-01-05T00:40:37.239Z,81.72
2023-01-05T00:43:04.579Z,90.63
2023-01-05T00:45:31.476Z,97.18
2023-01-05T00:47:58.288Z,105.50
2023-01-05T00:50:25.410Z,120.25
2023-01-05T00:52:52.325Z,110.78
2023-01-05T00:55:19.355Z,102.07
2023-01-05T00:57:46.592Z,103.78
2023-01-05T01:00:17.559Z,97.32
2023-01-05T01:02:44.776Z,92.53
2023-01-05T01:05:14.915Z,78.95
2023-01-05T01:07:42.238Z,77.13
2023-01-05T01:10:10.811Z,74.05
2023-01-05T01:12:37.916Z,81.80
2023-01-05T01:15:05.694Z,82.22
2023-01-05T01:17:32.947Z,83.43
2023-01-05T01:20:00.156Z,88.75
2023-01-05T01:22:26.987Z,87.13
2023-01-05T01:24:53.796Z,102.03
2023-01-05T01:27:20.975Z,85.55
2023-01-05T01:29:48.648Z,86.60
2023-01-05T01:32:15.501Z,133.52
2023-01-05T01:37:08.029Z,149.45
2023-01-05T01:39:34.955Z,125.38
2023-01-05T01:42:01.845Z,112.18
2023-01-05T01:44:51.994Z,94.82
2023-01-05T01:47:28.619Z,83.10
2023-01-05T01:52:28.189Z,97.72
2023-01-05T01:54:55.983Z,100.88
2023-01-05T01:57:24.325Z,103.65
2023-01-05T01:59:51.558Z,93.40
2023-01-05T02:02:22.005Z,87.53
2023-01-05T02:04:49.859Z,86.97
2023-01-05T02:07:16.753Z,83.45
2023-01-05T02:09:44.735Z,75.72
2023-01-05T02:12:33.585Z,71.43
2023-01-05T02:15:22.137Z,74.63
2023-01-05T02:17:49.148Z,71.18
2023-01-05T02:20:26.654Z,71.10
2023-01-05T02:23:12.146Z,82.30
2023-01-05T02:26:05.243Z,107.45
2023-01-05T02:28:53.591Z,91.30
2023-01-05T02:31:23.166Z,97.57
2023-01-05T02:33:55.984Z,89.30
2023-01-05T02:36:34.870Z,91.15
2023-01-05T02:39:23.594Z,122.25
2023-01-05T02:42:00.205Z,96.18
2023-01-05T02:47:03.993Z,101.00
2023-01-05T02:49:33.775Z,88.78
2023-01-05T02:52:03.352Z,89.38
2023-01-05T02:54:46.956Z,77.28
2023-01-05T02:57:48.336Z,96.93
2023-01-05T03:00:20.425Z,71.38
2023-01-05T03:02:51.697Z,58.17
2023-01-05T03:05:44.052Z,55.20
2023-01-05T03:08:26.341Z,53.75
2023-01-05T03:11:30.144Z,56.40
2023-01-05T03:14:28.913Z,55.22
2023-01-05T03:16:58.324Z,44.25
2023-01-05T03:19:41.426Z,51.30
2023-01-05T03:22:49.353Z,50.83
2023-01-05T03:25:38.687Z,64.15
2023-01-05T03:28:33.518Z,56.92
2023-01-05T03:31:25.989Z,59.03
2023-01-05T03:34:26.187Z,68.13
2023-01-05T03:37:10.752Z,69.25
2023-01-05T03:39:42.435Z,71.07
2023-01-05T03:42:11.754Z,69.32
2023-01-05T03:44:40.573Z,67.35
2023-01-05T03:47:08.020Z,69.65
2023-01-05T03:49:35.029Z,71.40
2023-01-05T03:52:01.849Z,74.28
2023-01-05T03:54:28.814Z,68.70
2023-01-05T03:56:55.608Z,69.10
2023-01-05T03:59:22.526Z,65.80
2023-01-05T04:01:49.695Z,70.32
2023-01-05T04:04:16.629Z,72.43
2023-01-05T04:06:43.525Z,67.57
2023-01-05T04:09:10.480Z,66.78
2023-01-05T04:11:37.257Z,65.72
2023-01-05T04:14:04.069Z,68.35
2023-01-05T04:16:31.042Z,67.00
2023-01-05T04:18:57.883Z,60.88
2023-01-05T04:21:24.831Z,67.43
2023-01-05T04:23:51.772Z,61.95
2023-01-05T04:26:18.628Z,66.75
2023-01-05T04:28:45.395Z,67.40
2023-01-05T04:31:12.327Z,74.18
2023-01-05T04:33:40.234Z,62.03
2023-01-05T04:36:08.352Z,61.88
2023-01-05T04:38:35.269Z,70.65
2023-01-05T04:41:02.137Z,66.85
2023-01-05T04:43:28.933Z,74.78
2023-01-05T04:45:55.787Z,69.55
2023-01-05T04:48:22.698Z,70.10
2023-01-05T04:50:54.656Z,70.65
2023-01-05T04:53:23.631Z,60.70
2023-01-05T04:55:51.961Z,65.20
2023-01-05T04:58:19.359Z,65.25
2023-01-05T05:00:46.339Z,60.55
2023-01-05T05:03:13.365Z,59.33
2023-01-05T05:05:40.237Z,62.45
2023-01-05T05:08:07.077Z,57.42
2023-01-05T05:10:33.963Z,57.42
2023-01-05T05:13:00.799Z,58.25
2023-01-05T05:15:27.637Z,63.22
2023-01-05T05:17:54.700Z,62.17
2023-01-05T05:20:21.473Z,63.55
2023-01-05T05:22:48.395Z,61.00
2023-01-05T05:25:15.352Z,60.78
2023-01-05T05:27:42.166Z,57.05
2023-01-05T05:30:09.590Z,59.45
2023-01-05T05:32:42.405Z,58.10
2023-01-05T05:35:11.099Z,62.10
2023-01-05T05:37:37.986Z,61.65
2023-01-05T05:40:05.348Z,65.00
2023-01-05T05:42:32.331Z,71.93
2023-01-05T05:44:59.202Z,68.88
2023-01-05T05:47:25.990Z,71.93
2023-01-05T05:49:52.978Z,71.57
2023-01-05T05:52:19.907Z,75.35
2023-01-05T05:54:46.892Z,74.70
2023-01-05T05:57:13.687Z,66.93
2023-01-05T05:59:40.528Z,69.70
2023-01-05T06:02:07.552Z,65.85
2023-01-05T06:04:34.470Z,66.07
2023-01-05T06:07:01.430Z,62.97
2023-01-05T06:09:28.428Z,57.42
2023-01-05T06:11:55.381Z,66.72
2023-01-05T06:14:22.315Z,65.60
2023-01-05T06:16:49.141Z,64.15
2023-01-05T06:19:15.961Z,72.10
2023-01-05T06:21:44.309Z,78.32
2023-01-05T06:24:11.284Z,72.85
2023-01-05T06:26:38.095Z,76.43
2023-01-05T06:29:04.929Z,72.18
2023-01-05T06:31:31.797Z,75.35
2023-01-05T06:33:58.661Z,81.88
2023-01-05T06:36:25.597Z,87.18
2023-01-05T06:38:52.403Z,83.10
2023-01-05T06:41:19.339Z,85.15
2023-01-05T06:43:46.171Z,80.75
2023-01-05T06:46:13.132Z,74.00
2023-01-05T06:48:40.041Z,76.53
2023-01-05T06:51:06.896Z,61.55
2023-01-05T06:53:33.778Z,71.38
2023-01-05T06:56:00.693Z,60.90
2023-01-05T06:58:27.591Z,57.55
2023-01-05T07:00:55.161Z,58.78
2023-01-05T07:03:23.828Z,56.63
2023-01-05T07:05:52.178Z,53.00
2023-01-05T07:08:19.004Z,57.00
2023-01-05T07:10:45.793Z,52.30
2023-01-05T07:13:12.613Z,46.40
2023-01-05T07:15:39.384Z,44.28
2023-01-05T07:18:06.260Z,45.70
2023-01-05T07:20:33.171Z,46.20
2023-01-05T07:22:59.993Z,51.58
2023-01-05T07:25:31.666Z,50.33
2023-01-05T07:27:59.124Z,48.08
2023-01-05T07:30:26.073Z,49.78
2023-01-05T07:32:52.886Z,50.00
2023-01-05T07:35:19.744Z,56.38
2023-01-05T07:37:46.559Z,47.65
2023-01-05T07:40:13.408Z,50.88
2023-01-05T07:42:40.269Z,46.05
2023-01-05T07:45:07.632Z,48.92
2023-01-05T07:47:34.558Z,43.83
2023-01-05T07:50:02.107Z,43.72
2023-01-05T07:52:30.840Z,44.03
2023-01-05T07:54:58.504Z,48.53
2023-01-05T07:57:25.436Z,45.22
2023-01-05T07:59:52.237Z,46.67
2023-01-05T08:02:19.638Z,45.70
2023-01-05T08:04:47.215Z,42.58
2023-01-05T08:07:15.802Z,41.13
2023-01-05T08:10:01.168Z,41.65
2023-01-05T08:12:29.243Z,43.08
2023-01-05T08:14:56.044Z,36.75
2023-01-05T08:17:22.958Z,39.58
2023-01-05T08:19:49.778Z,35.97
2023-01-05T08:22:16.730Z,36.63
2023-01-05T08:24:43.627Z,37.53
2023-01-05T08:27:10.615Z,37.95
2023-01-05T08:29:37.507Z,37.63
2023-01-05T08:32:04.673Z,39.83
2023-01-05T08:34:34.678Z,38.45
2023-01-05T08:37:01.924Z,37.17
2023-01-05T08:39:28.983Z,38.75
2023-01-05T08:42:02.054Z,36.03
2023-01-05T08:44:29.527Z,40.53
2023-01-05T08:46:56.428Z,50.08
2023-01-05T08:49:24.307Z,49.25
2023-01-05T08:51:51.160Z,45.40
2023-01-05T08:54:18.037Z,44.90
2023-01-05T08:56:44.928Z,45.35
2023-01-05T08:59:14.797Z,44.85
2023-01-05T09:01:41.962Z,39.45
2023-01-05T09:04:08.956Z,39.70
2023-01-05T09:06:36.322Z,39.42
2023-01-05T09:09:03.675Z,35.28
2023-01-05T09:11:30.570Z,34.78
2023-01-05T09:13:59.514Z,35.60
2023-01-05T09:19:16.438Z,35.50
2023-01-05T09:21:43.355Z,33.33
2023-01-05T09:24:14.909Z,36.08
2023-01-05T09:26:42.786Z,34.17
2023-01-05T09:29:11.151Z,33.50
2023-01-05T09:31:38.036Z,37.08
2023-01-05T09:34:04.826Z,37.67
2023-01-05T09:36:32.563Z,37.25
2023-01-05T09:38:59.922Z,40.50
2023-01-05T09:41:32.717Z,37.08
2023-01-05T09:44:04.926Z,34.13
2023-01-05T09:46:39.800Z,35.55
2023-01-05T09:49:12.962Z,41.08
2023-01-05T09:51:40.463Z,39.05
2023-01-05T09:54:08.506Z,56.75
2023-01-05T09:59:35.412Z,40.42
2023-01-05T10:02:14.877Z,35.65
2023-01-05T10:04:42.320Z,35.33
2023-01-05T10:07:21.249Z,32.05
2023-01-05T10:09:48.829Z,33.42
2023-01-05T10:12:59.004Z,34.60
2023-01-05T10:15:27.683Z,34.38
2023-01-05T10:17:54.671Z,34.33
2023-01-05T10:20:28.616Z,37.60
2023-01-05T10:23:16.193Z,36.90
2023-01-05T10:25:52.709Z,37.45
2023-01-05T10:28:34.675Z,35.47
2023-01-05T10:31:34.405Z,35.45
2023-01-05T10:34:22.581Z,34.75
2023-01-05T10:37:08.912Z,34.65
2023-01-05T10:39:44.307Z,43.97
2023-01-05T10:42:26.313Z,47.08
2023-01-05T10:45:03.565Z,39.47
2023-01-05T10:47:35.520Z,49.40
2023-01-05T10:50:04.685Z,37.28
2023-01-05T10:52:31.918Z,66.97
2023-01-05T10:55:01.331Z,31.85
2023-01-05T10:57:35.239Z,30.80
2023-01-05T11:00:11.571Z,32.15
2023-01-05T11:02:42.404Z,38.22
2023-01-05T11:05:11.983Z,34.55
2023-01-05T11:08:02.954Z,37.35
2023-01-05T11:10:48.181Z,35.17
2023-01-05T11:13:36.228Z,33.78
2023-01-05T11:16:08.153Z,35.25
2023-01-05T11:18:42.461Z,31.02
2023-01-05T11:21:23.946Z,30.75
2023-01-05T11:23:56.440Z,29.83
2023-01-05T11:26:32.977Z,32.45
2023-01-05T11:31:57.340Z,34.25
2023-01-05T11:34:48.226Z,36.97
2023-01-05T11:37:24.817Z,37.40
2023-01-05T11:42:26.705Z,37.08
2023-01-05T11:44:58.592Z,37.00
2023-01-05T11:47:31.469Z,38.85
2023-01-05T11:50:15.426Z,42.35
2023-01-05T11:52:44.795Z,41.50
2023-01-05T11:55:20.913Z,44.40
2023-01-05T11:57:51.589Z,43.03
2023-01-05T12:00:42.520Z,43.47
2023-01-05T12:03:18.284Z,42.95
2023-01-05T12:05:55.578Z,42.77
2023-01-05T12:08:33.301Z,47.00
2023-01-05T12:11:20.906Z,52.20
2023-01-05T12:14:10.487Z,48.05
2023-01-05T12:16:56.640Z,40.53
2023-01-05T12:19:29.285Z,40.03
2023-01-05T12:22:20.915Z,42.55
2023-01-05T12:25:01.853Z,41.28
2023-01-05T12:28:03.280Z,39.08
2023-01-05T12:34:08.673Z,33.97
2023-01-05T12:36:59.891Z,36.58
2023-01-05T12:39:45.023Z,34.47
2023-01-05T12:42:36.817Z,37.38
2023-01-05T12:45:32.388Z,33.15
2023-01-05T12:48:20.658Z,30.45
2023-01-05T12:50:56.653Z,30.20
2023-01-05T12:53:42.995Z,28.88
2023-01-05T12:56:20.420Z,25.63
2023-01-05T12:58:57.429Z,22.75
2023-01-05T13:01:30.323Z,29.77
2023-01-05T13:04:11.900Z,23.63
2023-01-05T13:06:44.870Z,24.48
2023-01-05T13:09:22.669Z,21.58
2023-01-05T13:12:09.608Z,23.70
2023-01-05T13:14:41.333Z,27.02
2023-01-05T13:17:21.391Z,29.98
2023-01-05T13:19:52.115Z,26.15
2023-01-05T13:22:30.270Z,24.92
2023-01-05T13:25:19.794Z,24.35
2023-01-05T13:27:46.819Z,24.90
2023-01-05T13:30:37.633Z,30.98
2023-01-05T13:33:33.462Z,21.15
2023-01-05T13:36:09.111Z,23.27
2023-01-05T13:39:04.030Z,20.07
2023-01-05T13:42:10.763Z,21.75
2023-01-05T13:45:07.959Z,23.65
2023-01-05T13:47:57.469Z,29.23
2023-01-05T13:51:01.714Z,26.88
2023-01-05T13:53:30.287Z,30.33
2023-01-05T13:56:05.292Z,32.78
2023-01-05T13:59:00.598Z,37.75
2023-01-05T14:01:42.314Z,34.42
2023-01-05T14:04:21.932Z,31.38
2023-01-05T14:06:53.047Z,32.25
2023-01-05T14:09:35.224Z,31.58
2023-01-05T14:12:11.230Z,46.10
2023-01-05T14:15:26.011Z,38.30
2023-01-05T14:17:55.929Z,36.60
2023-01-05T14:20:36.906Z,40.58
2023-01-05T14:23:22.611Z,37.05
2023-01-05T14:25:53.920Z,40.67
2023-01-05T14:28:35.760Z,38.28
2023-01-05T14:31:11.447Z,36.90
2023-01-05T14:33:52.629Z,39.53
2023-01-05T14:36:37.356Z,38.72
2023-01-05T14:39:27.598Z,35.50
2023-01-05T14:42:05.549Z,35.70
2023-01-05T14:44:43.457Z,42.92
2023-01-05T14:47:11.556Z,39.00
2023-01-05T14:50:06.242Z,39.35
2023-01-05T14:53:12.573Z,44.88
2023-01-05T14:56:01.076Z,41.42
2023-01-05T14:58:36.837Z,42.88
2023-01-05T15:01:37.684Z,41.97
2023-01-05T15:04:04.441Z,44.50
2023-01-05T15:06:38.208Z,41.92
2023-01-05T15:09:23.551Z,43.45
2023-01-05T15:11:56.777Z,45.58
2023-01-05T15:14:42.370Z,42.00
2023-01-05T15:17:27.667Z,49.45
2023-01-05T15:19:57.335Z,44.45
2023-01-05T15:22:39.164Z,48.20
2023-01-05T15:25:31.047Z,39.85
2023-01-05T15:28:48.420Z,43.28
2023-01-05T15:33:58.092Z,40.95
2023-01-05T15:36:30.322Z,43.53
2023-01-05T15:38:57.905Z,44.53
2023-01-05T15:41:27.804Z,42.60
2023-01-05T15:43:56.297Z,46.28
2023-01-05T15:46:30.793Z,57.88
2023-01-05T15:49:01.561Z,49.05
2023-01-05T15:51:31.687Z,53.67
2023-01-05T15:54:01.441Z,53.60
2023-01-05T15:56:35.974Z,57.58
2023-01-05T15:59:17.772Z,54.50
2023-01-05T16:01:44.743Z,57.10
2023-01-05T16:04:14.703Z,55.58
2023-01-05T16:06:46.095Z,81.95
2023-01-05T16:09:30.629Z,61.55
2023-01-05T16:12:06.755Z,61.60
2023-01-05T16:14:41.233Z,54.72
2023-01-05T16:17:20.451Z,54.33
2023-01-05T16:19:52.091Z,57.65
2023-01-05T16:22:40.184Z,51.92
2023-01-05T16:25:20.245Z,55.03
2023-01-05T16:27:50.513Z,57.78
2023-01-05T16:30:28.520Z,60.97
2023-01-05T16:33:03.888Z,58.80
2023-01-05T16:35:47.763Z,60.65
2023-01-05T16:38:22.642Z,66.80
2023-01-05T16:40:50.272Z,63.40
2023-01-05T16:43:19.435Z,64.55
2023-01-05T16:45:46.844Z,66.05
2023-01-05T16:48:36.465Z,67.13
2023-01-05T16:51:10.552Z,64.78
2023-01-05T16:53:43.236Z,69.72
2023-01-05T16:56:36.523Z,71.10
2023-01-05T16:59:25.404Z,71.10
2023-01-05T17:01:52.519Z,71.45
2023-01-05T17:04:20.163Z,65.78
2023-01-05T17:06:49.478Z,68.07
2023-01-05T17:09:26.002Z,68.90
2023-01-05T17:14:21.865Z,80.85
2023-01-05T17:16:48.760Z,73.03
2023-01-05T17:19:19.932Z,80.00
2023-01-05T17:21:56.773Z,91.10
2023-01-05T17:24:24.035Z,219.68
2023-01-05T17:26:51.211Z,261.30
2023-01-05T17:29:23.435Z,188.82
2023-01-05T17:31:50.799Z,225.05
2023-01-05T17:34:18.156Z,222.63
2023-01-05T17:36:46.497Z,231.93
2023-01-05T17:39:18.428Z,239.77
2023-01-05T17:41:45.766Z,237.20
2023-01-05T17:44:13.234Z,236.68
2023-01-05T17:46:44.056Z,211.02
2023-01-05T17:49:20.547Z,222.48
2023-01-05T17:56:42.042Z,222.15
2023-01-05T17:59:09.185Z,238.55
2023-01-05T18:01:36.454Z,231.70
2023-01-05T18:04:03.505Z,224.77
2023-01-05T18:06:30.757Z,233.18
2023-01-05T18:08:58.222Z,242.85
2023-01-05T18:11:25.242Z,252.15
2023-01-05T18:13:52.475Z,248.63
2023-01-05T18:16:19.508Z,238.95
2023-01-05T18:18:46.730Z,230.20
2023-01-05T18:21:13.780Z,223.82
2023-01-05T18:23:40.761Z,209.82
2023-01-05T18:26:09.964Z,207.85
2023-01-05T18:28:37.857Z,202.52
2023-01-05T18:31:13.456Z,161.85
2023-01-05T18:33:40.641Z,146.73
2023-01-05T18:36:09.668Z,126.60
2023-01-05T18:38:37.931Z,116.53
2023-01-05T18:41:05.597Z,134.70
2023-01-05T18:43:34.069Z,132.43
2023-01-05T18:46:02.969Z,146.25
2023-01-05T18:48:49.788Z,156.82
2023-01-05T18:51:17.147Z,184.45
2023-01-05T18:53:44.555Z,187.57
2023-01-05T18:56:14.760Z,199.35
2023-01-05T18:58:42.758Z,180.90
2023-01-05T19:01:18.639Z,172.88
2023-01-05T19:03:46.415Z,160.30
2023-01-05T19:06:18.460Z,153.10
2023-01-05T19:08:49.030Z,153.38
2023-01-05T19:11:33.700Z,133.30
2023-01-05T19:14:02.832Z,132.30
2023-01-05T19:16:32.060Z,155.32
2023-01-05T19:19:03.608Z,141.77
2023-01-05T19:21:32.498Z,133.50
2023-01-05T19:24:01.985Z,146.73
2023-01-05T19:26:31.688Z,137.88
2023-01-05T19:29:00.743Z,136.68
2023-01-05T19:31:29.421Z,187.32
2023-01-05T19:34:01.018Z,183.20
2023-01-05T19:36:36.212Z,193.52
2023-01-05T19:39:09.186Z,207.05
2023-01-05T19:41:37.844Z,209.90
2023-01-05T19:44:05.463Z,198.27
2023-01-05T19:46:36.424Z,193.32
2023-01-05T19:49:03.691Z,167.80
2023-01-05T19:51:31.199Z,169.48
2023-01-05T19:54:04.562Z,171.43
2023-01-05T19:56:33.945Z,171.10
2023-01-05T19:59:08.194Z,173.02
2023-01-05T20:01:37.353Z,161.05
2023-01-05T20:04:04.938Z,161.13
2023-01-05T20:06:37.942Z,171.40
2023-01-05T20:09:08.304Z,130.52
2023-01-05T20:11:39.781Z,151.98
2023-01-05T20:14:10.610Z,146.55
2023-01-05T20:16:38.177Z,136.75
2023-01-05T20:19:05.811Z,136.05
2023-01-05T20:21:32.893Z,140.63
2023-01-05T20:24:01.813Z,133.18
2023-01-05T20:26:31.175Z,136.90
2023-01-05T20:29:01.950Z,138.93
2023-01-05T20:31:43.729Z,135.77
2023-01-05T20:34:17.064Z,134.30
2023-01-05T20:36:45.140Z,151.05
2023-01-05T20:39:16.262Z,151.13
2023-01-05T20:41:46.037Z,145.40
2023-01-05T20:44:14.063Z,152.52
2023-01-05T20:47:00.647Z,154.20
2023-01-05T20:49:27.488Z,152.88
2023-01-05T20:51:54.327Z,143.18
2023-01-05T20:54:21.345Z,123.97
2023-01-05T20:56:49.435Z,120.50
2023-01-05T20:59:27.454Z,103.07
2023-01-05T21:01:54.851Z,156.48
2023-01-05T21:04:23.320Z,143.60
2023-01-05T21:06:51.756Z,92.10
2023-01-05T21:09:19.027Z,102.15
2023-01-05T21:11:46.201Z,97.78
2023-01-05T21:14:14.460Z,78.50
2023-01-05T21:16:47.472Z,88.50
2023-01-05T21:19:21.203Z,73.35
2023-01-05T21:21:50.431Z,59.10
2023-01-05T21:24:17.518Z,55.35
2023-01-05T21:26:44.925Z,54.58
2023-01-05T21:29:16.610Z,54.38
2023-01-05T21:31:43.937Z,55.60
2023-01-05T21:34:11.920Z,55.85
2023-01-05T21:36:43.355Z,56.58
2023-01-05T21:39:17.540Z,57.13
2023-01-05T21:42:03.128Z,57.33
2023-01-05T21:44:30.213Z,52.97
2023-01-05T21:46:57.183Z,57.63
2023-01-05T21:49:24.302Z,51.85
2023-01-05T21:52:09.761Z,53.38
2023-01-05T21:54:55.368Z,49.95
2023-01-05T21:57:22.458Z,48.35
2023-01-05T21:59:49.325Z,47.28
2023-01-05T22:02:16.629Z,55.70
2023-01-05T22:04:44.508Z,49.47
2023-01-05T22:07:11.508Z,52.08
2023-01-05T22:09:39.385Z,48.65
2023-01-05T22:12:10.030Z,49.53
2023-01-05T22:14:40.123Z,55.17
2023-01-05T22:17:08.708Z,45.63
2023-01-05T22:19:36.025Z,48.38
2023-01-05T22:22:03.184Z,46.03
2023-01-05T22:24:30.083Z,55.00
2023-01-05T22:26:57.040Z,50.45
2023-01-05T22:29:24.224Z,44.63
2023-01-05T22:31:51.153Z,48.08
2023-01-05T22:34:18.800Z,47.90
2023-01-05T22:36:46.129Z,52.15
2023-01-05T22:39:13.355Z,45.42
2023-01-05T22:41:40.276Z,42.95
2023-01-05T22:44:07.914Z,44.88
2023-01-05T22:46:34.987Z,42.33
2023-01-05T22:49:02.343Z,39.55
2023-01-05T22:51:35.409Z,46.20
2023-01-05T22:54:03.779Z,40.55
2023-01-05T22:56:32.172Z,41.30
2023-01-05T22:59:00.132Z,42.03
2023-01-05T23:01:29.942Z,44.60
2023-01-05T23:03:59.019Z,46.88
2023-01-05T23:06:27.118Z,38.95
2023-01-05T23:08:55.037Z,40.60
2023-01-05T23:11:28.502Z,43.25
2023-01-05T23:13:56.267Z,35.90
2023-01-05T23:16:23.885Z,42.28
2023-01-05T23:18:51.372Z,40.55
2023-01-05T23:21:19.874Z,45.47
2023-01-05T23:23:47.283Z,40.03
2023-01-05T23:26:16.528Z,43.78
2023-01-05T23:28:44.538Z,44.40
2023-01-05T23:31:14.590Z,41.80
2023-01-05T23:33:42.387Z,40.63
2023-01-05T23:36:10.990Z,40.58
2023-01-05T23:38:38.277Z,39.17
2023-01-05T23:41:08.342Z,35.40
2023-01-05T23:43:37.993Z,25.13
2023-01-05T23:46:09.336Z,23.88
2023-01-05T23:48:37.600Z,24.17
2023-01-05T23:51:06.424Z,21.05
2023-01-05T23:53:33.600Z,17.27
2023-01-05T23:56:22.952Z,15.48
2023-01-05T23:58:57.538Z,17.85
